Time;durP1;ratioP1;P1;durP2;ratioP2;P2;SDS_P1;SDS_P2;PMS_P1;PMS_P2;Temp;Humidity;BMP_temperature;BMP_pressure;BME280_temperature;BME280_humidity;BME280_pressure;Samples;Min_cycle;Max_cycle;Signal;HPM_P1;HPM_P2
2023/04/22 00:00:15;;;;;;;8.80;7.45;;;9.20;99.90;;;;;;5057557;28;20021;-59
2023/04/22 00:02:42;;;;;;;6.93;6.10;;;9.10;99.90;;;;;;5054937;28;20029;-58
2023/04/22 00:05:12;;;;;;;8.43;7.13;;;9.00;99.90;;;;;;5054795;28;20025;-59
2023/04/22 00:07:38;;;;;;;9.30;6.80;;;8.90;99.90;;;;;;5056080;28;20026;-59
2023/04/22 00:10:04;;;;;;;7.75;6.47;;;8.80;99.90;;;;;;5037584;28;20048;-59
2023/04/22 00:12:30;;;;;;;10.13;7.18;;;8.80;99.90;;;;;;5055383;28;20108;-58
2023/04/22 00:14:56;;;;;;;7.65;6.35;;;8.90;99.90;;;;;;5057120;28;20104;-60
2023/04/22 00:17:22;;;;;;;7.85;5.93;;;8.90;99.90;;;;;;5057751;28;20119;-58
2023/04/22 00:19:47;;;;;;;8.95;6.20;;;8.90;99.90;;;;;;5056221;28;20037;-62
2023/04/22 00:22:13;;;;;;;8.77;7.20;;;9.00;99.90;;;;;;5058840;28;20024;-61
2023/04/22 00:24:39;;;;;;;7.85;5.60;;;9.00;99.90;;;;;;5056376;28;20074;-57
2023/04/22 00:27:04;;;;;;;9.43;6.43;;;9.00;99.90;;;;;;5062587;28;20028;-61
2023/04/22 00:29:30;;;;;;;6.05;5.45;;;8.90;99.90;;;;;;5058595;28;20448;-58
2023/04/22 00:31:56;;;;;;;5.60;5.10;;;8.70;99.90;;;;;;5057544;28;20021;-61
2023/04/22 00:34:21;;;;;;;6.40;5.68;;;8.40;99.90;;;;;;5057744;28;20108;-61
2023/04/22 00:36:47;;;;;;;7.70;7.00;;;8.20;99.90;;;;;;5056481;28;20036;-59
2023/04/22 00:39:13;;;;;;;7.85;7.15;;;8.00;99.90;;;;;;5062274;28;20060;-58
2023/04/22 00:41:39;;;;;;;9.90;6.75;;;7.80;99.90;;;;;;5060073;28;20116;-59
2023/04/22 00:44:09;;;;;;;12.02;7.25;;;7.70;99.90;;;;;;5058476;28;20119;-60
2023/04/22 00:46:37;;;;;;;10.40;6.87;;;7.60;99.90;;;;;;5058919;28;20032;-58
2023/04/22 00:49:03;;;;;;;7.05;6.35;;;7.50;99.90;;;;;;5060689;28;20108;-60
2023/04/22 00:51:30;;;;;;;7.75;5.95;;;7.50;99.90;;;;;;5060567;28;20060;-56
2023/04/22 00:53:56;;;;;;;7.38;6.65;;;7.40;99.90;;;;;;5061677;28;20033;-57
2023/04/22 00:56:25;;;;;;;9.55;7.22;;;7.30;99.90;;;;;;5057090;28;20043;-60
2023/04/22 00:58:53;;;;;;;7.53;6.82;;;7.30;99.90;;;;;;5058873;28;20036;-59
2023/04/22 01:01:18;;;;;;;8.60;7.10;;;7.30;99.90;;;;;;5058864;28;20028;-58
2023/04/22 01:03:46;;;;;;;8.43;7.53;;;7.30;99.90;;;;;;5059363;28;20025;-60
2023/04/22 01:06:12;;;;;;;8.18;7.47;;;7.20;99.90;;;;;;5058942;28;20056;-60
2023/04/22 01:08:39;;;;;;;9.27;7.55;;;7.20;99.90;;;;;;5056584;28;20060;-57
2023/04/22 01:11:05;;;;;;;9.80;6.75;;;7.20;99.90;;;;;;5059247;28;20572;-61
2023/04/22 01:13:31;;;;;;;8.75;6.75;;;7.20;99.90;;;;;;5057644;28;20052;-62
2023/04/22 01:15:59;;;;;;;7.13;6.53;;;7.20;99.90;;;;;;5056978;28;20432;-61
2023/04/22 01:18:25;;;;;;;12.05;7.07;;;7.10;99.90;;;;;;5060203;28;20444;-60
2023/04/22 01:20:51;;;;;;;10.60;6.75;;;7.10;99.90;;;;;;5058635;28;20052;-60
2023/04/22 01:23:21;;;;;;;7.63;6.93;;;7.10;99.90;;;;;;5051828;28;20021;-62
2023/04/22 01:25:48;;;;;;;9.48;7.35;;;7.00;99.90;;;;;;5057893;28;20515;-60
2023/04/22 01:28:15;;;;;;;8.60;7.70;;;7.00;99.90;;;;;;5057569;28;20432;-63
2023/04/22 01:30:41;;;;;;;9.02;8.13;;;7.00;99.90;;;;;;5056491;28;20190;-60
2023/04/22 01:33:08;;;;;;;8.10;7.30;;;7.00;99.90;;;;;;5057149;28;20036;-58
2023/04/22 01:35:35;;;;;;;8.45;7.65;;;7.00;99.90;;;;;;5058874;28;20037;-61
2023/04/22 01:38:06;;;;;;;20.45;8.30;;;7.00;99.90;;;;;;5057035;28;20033;-59
2023/04/22 01:40:32;;;;;;;10.83;7.00;;;7.00;99.90;;;;;;5059353;28;20120;-58
2023/04/22 01:43:01;;;;;;;7.95;7.15;;;7.10;99.90;;;;;;5058254;28;20255;-61
2023/04/22 01:45:27;;;;;;;10.38;7.30;;;7.10;99.90;;;;;;5057804;28;20056;-61
2023/04/22 01:47:53;;;;;;;11.48;7.60;;;7.00;99.90;;;;;;5054779;28;20423;-58
2023/04/22 01:50:20;;;;;;;7.68;6.90;;;7.00;99.90;;;;;;5055880;28;20037;-60
2023/04/22 01:52:46;;;;;;;9.00;7.65;;;6.90;99.90;;;;;;5059084;28;20036;-60
2023/04/22 01:55:12;;;;;;;8.75;7.95;;;6.80;99.90;;;;;;5059135;28;20400;-58
2023/04/22 01:57:37;;;;;;;8.30;7.55;;;6.80;99.90;;;;;;5056648;28;20044;-58
2023/04/22 02:00:04;;;;;;;7.57;6.85;;;6.70;99.90;;;;;;5057378;28;20540;-59
2023/04/22 02:02:30;;;;;;;8.57;7.85;;;6.70;99.90;;;;;;5056219;28;20028;-59
2023/04/22 02:04:55;;;;;;;7.82;6.93;;;6.70;99.90;;;;;;5055731;28;20396;-58
2023/04/22 02:07:21;;;;;;;10.82;7.38;;;6.70;99.90;;;;;;5041200;28;20040;-60
2023/04/22 02:09:47;;;;;;;14.77;7.22;;;6.70;99.90;;;;;;5024089;28;20035;-60
2023/04/22 02:12:12;;;;;;;9.38;7.40;;;6.60;99.90;;;;;;5055005;28;20051;-59
2023/04/22 02:14:38;;;;;;;7.93;6.97;;;6.60;99.90;;;;;;5058769;28;20571;-60
2023/04/22 02:17:04;;;;;;;8.98;7.75;;;6.60;99.90;;;;;;5059333;28;20041;-59
2023/04/22 02:19:29;;;;;;;7.97;7.28;;;6.60;99.90;;;;;;5054216;28;20080;-61
2023/04/22 02:21:56;;;;;;;8.05;7.25;;;6.60;99.90;;;;;;5057289;28;20029;-59
2023/04/22 02:24:25;;;;;;;9.75;7.85;;;6.60;99.90;;;;;;5057688;28;20403;-61
2023/04/22 02:26:51;;;;;;;9.02;8.15;;;6.60;99.90;;;;;;5057484;28;20064;-60
2023/04/22 02:29:16;;;;;;;10.45;8.02;;;6.60;99.90;;;;;;5057931;28;20519;-61
2023/04/22 02:31:42;;;;;;;8.65;7.00;;;6.60;99.90;;;;;;5056543;28;20060;-60
2023/04/22 02:34:07;;;;;;;7.32;6.70;;;6.60;99.90;;;;;;5056930;28;20067;-62
2023/04/22 02:36:33;;;;;;;9.55;7.78;;;6.60;99.90;;;;;;5058459;28;20070;-61
2023/04/22 02:39:04;;;;;;;8.88;7.45;;;6.60;99.90;;;;;;5057068;28;20494;-58
2023/04/22 02:41:29;;;;;;;9.65;8.57;;;6.60;99.90;;;;;;5054753;28;20024;-59
2023/04/22 02:43:55;;;;;;;7.95;7.03;;;6.60;99.90;;;;;;5057568;28;20032;-58
2023/04/22 02:46:21;;;;;;;8.07;6.80;;;6.70;99.90;;;;;;5058480;28;20025;-60
2023/04/22 02:48:48;;;;;;;12.55;8.73;;;6.60;99.90;;;;;;5055328;28;20051;-60
2023/04/22 02:51:14;;;;;;;10.48;8.43;;;6.60;99.90;;;;;;5057266;28;20045;-58
2023/04/22 02:53:40;;;;;;;9.02;7.30;;;6.60;99.90;;;;;;5055944;28;20044;-59
2023/04/22 02:56:07;;;;;;;8.48;7.65;;;6.50;99.90;;;;;;5056584;28;20400;-58
2023/04/22 02:58:33;;;;;;;10.52;7.32;;;6.50;99.90;;;;;;5056978;28;20037;-57
2023/04/22 03:00:59;;;;;;;8.23;7.43;;;6.50;99.90;;;;;;5054037;28;20639;-61
2023/04/22 03:03:25;;;;;;;8.57;7.28;;;6.40;99.90;;;;;;5054090;28;20029;-59
2023/04/22 03:05:51;;;;;;;9.57;7.45;;;6.40;99.90;;;;;;5056833;28;20521;-60
2023/04/22 03:08:16;;;;;;;8.80;7.95;;;6.30;99.90;;;;;;5057750;28;20029;-61
2023/04/22 03:10:42;;;;;;;11.07;7.45;;;6.30;99.90;;;;;;5057172;28;20400;-59
2023/04/22 03:13:08;;;;;;;8.15;7.38;;;6.20;99.90;;;;;;5037244;28;20021;-61
2023/04/22 03:15:33;;;;;;;9.15;8.32;;;6.20;99.90;;;;;;5056291;28;20044;-63
2023/04/22 03:17:59;;;;;;;8.23;7.45;;;6.20;99.90;;;;;;5057694;28;20021;-58
2023/04/22 03:20:24;;;;;;;8.98;8.02;;;6.20;99.90;;;;;;5058254;28;20029;-60
2023/04/22 03:22:50;;;;;;;8.35;7.53;;;6.10;99.90;;;;;;5058906;28;20017;-63
2023/04/22 03:25:16;;;;;;;10.43;8.05;;;6.10;99.90;;;;;;5057454;28;20377;-62
2023/04/22 03:27:41;;;;;;;9.55;7.72;;;6.10;99.90;;;;;;5055443;28;20079;-60
2023/04/22 03:30:07;;;;;;;8.98;8.27;;;6.10;99.90;;;;;;5055421;28;20060;-60
2023/04/22 03:32:33;;;;;;;9.40;8.40;;;6.10;99.90;;;;;;5056842;28;20039;-59
2023/04/22 03:34:58;;;;;;;10.70;8.00;;;6.10;99.90;;;;;;5057280;28;20538;-59
2023/04/22 03:37:24;;;;;;;12.15;8.93;;;6.20;99.90;;;;;;5054859;28;20032;-60
2023/04/22 03:39:50;;;;;;;7.95;7.15;;;6.30;99.90;;;;;;5056765;28;20044;-60
2023/04/22 03:42:16;;;;;;;11.07;7.55;;;6.30;99.90;;;;;;5055648;28;20059;-60
2023/04/22 03:44:41;;;;;;;9.77;7.50;;;6.40;99.90;;;;;;5058279;28;20113;-60
2023/04/22 03:47:07;;;;;;;8.60;7.90;;;6.30;99.90;;;;;;5056105;28;20030;-62
2023/04/22 03:49:32;;;;;;;8.25;7.53;;;6.30;99.90;;;;;;5052720;28;20846;-59
2023/04/22 03:51:58;;;;;;;8.80;7.90;;;6.30;99.90;;;;;;5055500;28;20047;-59
2023/04/22 03:54:25;;;;;;;9.15;8.25;;;6.30;99.90;;;;;;5053475;28;20033;-58
2023/04/22 03:56:51;;;;;;;12.95;7.68;;;6.30;99.90;;;;;;5061133;28;20408;-58
2023/04/22 03:59:17;;;;;;;10.05;7.90;;;6.30;99.90;;;;;;5056198;28;20033;-62
2023/04/22 04:01:44;;;;;;;8.93;8.02;;;6.30;99.90;;;;;;5059498;28;20904;-60
2023/04/22 04:04:10;;;;;;;8.38;7.40;;;6.20;99.90;;;;;;5064321;28;20078;-61
2023/04/22 04:06:35;;;;;;;8.52;7.53;;;6.20;99.90;;;;;;5060783;28;20788;-63
2023/04/22 04:09:02;;;;;;;8.75;7.93;;;6.20;99.90;;;;;;5058281;28;20059;-58
2023/04/22 04:11:28;;;;;;;12.07;6.78;;;6.10;99.90;;;;;;5058150;28;20048;-61
2023/04/22 04:13:53;;;;;;;7.25;6.55;;;6.10;99.90;;;;;;5059357;28;20021;-59
2023/04/22 04:16:19;;;;;;;8.15;7.32;;;6.10;99.90;;;;;;5061531;28;20507;-61
2023/04/22 04:18:48;;;;;;;10.52;7.47;;;6.00;99.90;;;;;;5060377;28;20025;-62
2023/04/22 04:21:13;;;;;;;7.97;7.15;;;6.00;99.90;;;;;;5059250;28;20029;-61
2023/04/22 04:23:39;;;;;;;7.88;7.15;;;5.90;99.90;;;;;;5062072;28;20518;-58
2023/04/22 04:26:04;;;;;;;7.90;6.40;;;5.80;99.90;;;;;;5059895;28;20028;-60
2023/04/22 04:28:31;;;;;;;7.53;6.93;;;5.80;99.90;;;;;;5059072;28;20488;-58
2023/04/22 04:30:58;;;;;;;6.93;6.25;;;5.80;99.90;;;;;;5057137;28;20100;-59
2023/04/22 04:33:24;;;;;;;7.95;7.15;;;5.70;99.90;;;;;;5062821;28;20621;-59
2023/04/22 04:35:51;;;;;;;9.18;7.88;;;5.70;99.90;;;;;;5059369;28;20040;-62
2023/04/22 04:38:17;;;;;;;9.32;7.07;;;5.80;99.90;;;;;;5058665;28;20516;-62
2023/04/22 04:40:44;;;;;;;8.48;6.72;;;5.80;99.90;;;;;;5058786;28;20032;-58
2023/04/22 04:43:11;;;;;;;7.85;7.05;;;5.80;99.90;;;;;;5060160;28;20024;-61
2023/04/22 04:45:38;;;;;;;7.30;6.60;;;5.80;99.90;;;;;;5061141;28;20437;-62
2023/04/22 04:48:06;;;;;;;9.68;7.25;;;5.80;99.90;;;;;;5059676;28;20036;-61
2023/04/22 04:50:32;;;;;;;8.38;6.93;;;5.80;99.90;;;;;;5042686;28;20059;-62
2023/04/22 04:52:57;;;;;;;8.93;6.95;;;5.80;99.90;;;;;;5059487;28;20056;-58
2023/04/22 04:55:23;;;;;;;9.05;8.10;;;5.80;99.90;;;;;;5041601;28;20731;-60
2023/04/22 04:57:49;;;;;;;9.88;7.22;;;5.90;99.90;;;;;;5057076;28;20063;-62
2023/04/22 05:00:14;;;;;;;7.53;6.90;;;5.90;99.90;;;;;;5057956;28;20093;-61
2023/04/22 05:02:40;;;;;;;9.57;7.22;;;5.90;99.90;;;;;;5059894;28;20108;-58
2023/04/22 05:05:07;;;;;;;11.23;8.35;;;6.00;99.90;;;;;;5057341;28;20456;-62
2023/04/22 05:07:32;;;;;;;9.65;8.05;;;6.10;99.90;;;;;;5057409;28;20443;-60
2023/04/22 05:09:59;;;;;;;11.50;6.97;;;6.10;99.90;;;;;;5058106;28;20025;-61
2023/04/22 05:12:25;;;;;;;8.63;7.82;;;6.20;99.90;;;;;;5060016;28;20029;-59
2023/04/22 05:14:51;;;;;;;7.75;6.95;;;6.30;99.90;;;;;;5061105;28;20029;-61
2023/04/22 05:17:18;;;;;;;9.32;8.32;;;6.40;99.90;;;;;;5060637;28;20040;-61
2023/04/22 05:19:43;;;;;;;13.95;8.05;;;6.50;99.90;;;;;;5062805;28;20028;-59
2023/04/22 05:22:09;;;;;;;8.95;7.70;;;6.60;99.90;;;;;;5063747;28;20190;-61
2023/04/22 05:24:35;;;;;;;8.65;7.68;;;6.60;99.90;;;;;;5064758;28;20645;-61
2023/04/22 05:27:00;;;;;;;9.38;7.43;;;6.70;99.90;;;;;;5061352;28;20040;-60
2023/04/22 05:29:27;;;;;;;8.25;7.45;;;6.70;99.90;;;;;;5063061;28;20492;-62
2023/04/22 05:31:52;;;;;;;7.65;6.93;;;6.80;99.90;;;;;;5066211;28;20031;-61
2023/04/22 05:34:18;;;;;;;11.52;7.35;;;6.80;99.90;;;;;;5058879;28;20025;-61
2023/04/22 05:36:44;;;;;;;7.80;7.10;;;6.90;99.90;;;;;;5059863;28;20472;-62
2023/04/22 05:39:09;;;;;;;8.30;7.43;;;7.00;99.90;;;;;;5060760;28;20476;-60
2023/04/22 05:41:35;;;;;;;8.13;7.00;;;7.10;99.90;;;;;;5061043;28;20174;-61
2023/04/22 05:44:01;;;;;;;7.80;7.10;;;7.20;99.90;;;;;;5059074;28;20041;-59
2023/04/22 05:46:26;;;;;;;13.07;6.45;;;7.30;99.90;;;;;;5061783;28;20028;-58
2023/04/22 05:48:54;;;;;;;7.85;7.07;;;7.30;99.90;;;;;;5060734;28;20388;-60
2023/04/22 05:51:21;;;;;;;8.38;7.25;;;7.50;99.90;;;;;;5063006;28;20025;-62
2023/04/22 05:53:46;;;;;;;7.72;6.97;;;7.60;99.90;;;;;;5059104;28;20118;-61
2023/04/22 05:56:12;;;;;;;9.93;7.07;;;7.80;99.90;;;;;;5061617;28;20091;-59
2023/04/22 05:58:37;;;;;;;7.55;6.95;;;7.90;99.90;;;;;;5060734;28;20844;-58
2023/04/22 06:01:03;;;;;;;12.98;7.47;;;8.00;99.90;;;;;;5059831;28;20492;-58
2023/04/22 06:03:29;;;;;;;7.78;7.03;;;8.10;99.90;;;;;;5057242;28;20120;-58
2023/04/22 06:05:54;;;;;;;12.13;8.23;;;8.30;99.90;;;;;;5061644;28;20141;-59
2023/04/22 06:08:20;;;;;;;8.98;5.90;;;8.40;99.90;;;;;;5060013;28;20115;-62
2023/04/22 06:10:46;;;;;;;7.00;6.00;;;8.50;99.90;;;;;;5054926;28;20040;-60
2023/04/22 06:13:11;;;;;;;7.07;6.22;;;8.60;99.90;;;;;;5059015;28;20138;-59
2023/04/22 06:15:37;;;;;;;7.78;6.80;;;8.70;99.90;;;;;;5056263;28;20043;-59
2023/04/22 06:18:03;;;;;;;7.95;6.40;;;8.80;99.90;;;;;;5053079;28;20036;-61
2023/04/22 06:20:31;;;;;;;6.95;6.32;;;9.00;99.90;;;;;;5053868;28;20033;-61
2023/04/22 06:22:57;;;;;;;7.50;5.93;;;9.10;99.90;;;;;;5055421;28;20451;-61
2023/04/22 06:25:23;;;;;;;7.68;6.97;;;9.20;99.90;;;;;;5057512;28;20114;-60
2023/04/22 06:27:49;;;;;;;7.88;6.20;;;9.40;99.90;;;;;;5057436;28;20119;-63
2023/04/22 06:30:14;;;;;;;6.93;6.25;;;9.50;99.90;;;;;;5055500;28;20120;-59
2023/04/22 06:32:40;;;;;;;7.55;6.85;;;9.70;99.90;;;;;;5056544;28;20035;-62
2023/04/22 06:35:06;;;;;;;8.40;6.65;;;9.80;99.90;;;;;;5057577;28;20570;-61
2023/04/22 06:37:32;;;;;;;6.28;5.68;;;9.90;99.90;;;;;;5057162;28;20565;-62
2023/04/22 06:39:57;;;;;;;6.82;5.63;;;10.10;99.90;;;;;;5056192;28;20051;-62
2023/04/22 06:42:23;;;;;;;6.82;6.15;;;10.20;99.90;;;;;;5056089;28;20120;-60
2023/04/22 06:44:49;;;;;;;7.10;6.10;;;10.30;99.90;;;;;;5057774;28;20099;-61
2023/04/22 06:47:14;;;;;;;8.65;5.85;;;10.50;99.90;;;;;;5054301;28;20025;-59
2023/04/22 06:49:41;;;;;;;5.60;5.10;;;10.80;99.90;;;;;;5054367;28;20032;-60
2023/04/22 06:52:07;;;;;;;12.23;5.68;;;11.10;99.90;;;;;;5058502;28;20032;-58
2023/04/22 06:54:33;;;;;;;9.23;5.93;;;11.40;99.90;;;;;;5058765;28;20373;-61
2023/04/22 06:56:58;;;;;;;6.50;5.88;;;11.60;99.90;;;;;;5055578;28;20097;-61
2023/04/22 06:59:24;;;;;;;7.95;5.22;;;11.80;99.90;;;;;;5055661;28;20120;-58
2023/04/22 07:01:50;;;;;;;6.13;5.28;;;11.80;99.90;;;;;;5061027;28;20048;-58
2023/04/22 07:04:15;;;;;;;6.10;5.10;;;11.90;99.90;;;;;;5060674;28;20028;-63
2023/04/22 07:06:42;;;;;;;10.45;5.47;;;11.90;99.90;;;;;;5057723;28;20020;-59
2023/04/22 07:09:07;;;;;;;5.90;4.72;;;12.00;99.90;;;;;;5055442;28;20497;-60
2023/04/22 07:11:33;;;;;;;7.65;5.35;;;12.10;99.90;;;;;;5054089;28;20036;-60
2023/04/22 07:13:59;;;;;;;7.93;5.10;;;12.30;99.90;;;;;;5056821;28;20032;-59
2023/04/22 07:16:26;;;;;;;8.13;4.35;;;12.40;99.90;;;;;;5058778;28;20051;-60
2023/04/22 07:18:52;;;;;;;6.47;4.47;;;12.60;99.90;;;;;;5056486;28;20056;-59
2023/04/22 07:21:18;;;;;;;5.60;3.88;;;12.80;99.90;;;;;;5057130;28;20489;-60
2023/04/22 07:23:43;;;;;;;5.25;3.88;;;12.90;99.90;;;;;;5057977;28;20489;-60
2023/04/22 07:26:09;;;;;;;6.38;4.38;;;13.00;99.90;;;;;;5053224;28;20036;-59
2023/04/22 07:28:35;;;;;;;5.68;4.30;;;13.10;99.90;;;;;;5057143;28;20024;-59
2023/04/22 07:31:01;;;;;;;4.80;4.03;;;13.20;99.90;;;;;;5056345;28;20024;-59
2023/04/22 07:33:27;;;;;;;7.03;4.15;;;13.30;99.90;;;;;;5056590;28;20501;-59
2023/04/22 07:35:52;;;;;;;4.95;3.90;;;13.50;99.90;;;;;;5058108;28;20135;-60
2023/04/22 07:38:18;;;;;;;6.60;3.83;;;13.60;99.90;;;;;;5060209;28;20036;-60
2023/04/22 07:40:44;;;;;;;5.82;4.10;;;13.80;99.90;;;;;;5059598;28;20025;-64
2023/04/22 07:43:10;;;;;;;8.05;4.35;;;14.00;99.90;;;;;;5064985;28;20078;-60
2023/04/22 07:45:35;;;;;;;15.40;4.22;;;14.10;99.90;;;;;;5059019;28;20048;-60
2023/04/22 07:48:01;;;;;;;5.03;3.80;;;14.30;99.90;;;;;;5058900;28;20158;-60
2023/04/22 07:50:27;;;;;;;5.82;3.97;;;14.50;99.90;;;;;;5059000;28;20035;-61
2023/04/22 07:52:52;;;;;;;5.93;3.92;;;14.60;99.90;;;;;;5059827;28;20040;-62
2023/04/22 07:55:18;;;;;;;5.63;3.53;;;14.70;99.90;;;;;;5063492;28;20028;-61
2023/04/22 07:57:44;;;;;;;5.97;4.03;;;15.00;99.90;;;;;;5063573;28;20048;-61
2023/04/22 08:00:10;;;;;;;7.38;4.20;;;15.20;99.90;;;;;;5059735;28;20028;-60
2023/04/22 08:02:35;;;;;;;8.38;4.90;;;15.30;99.90;;;;;;5063152;28;20091;-61
2023/04/22 08:05:01;;;;;;;6.60;4.10;;;15.50;99.90;;;;;;5060946;28;20064;-61
2023/04/22 08:07:27;;;;;;;7.10;3.72;;;15.70;99.90;;;;;;5061234;28;20484;-59
2023/04/22 08:09:55;;;;;;;6.97;4.25;;;15.90;99.90;;;;;;5058779;28;20771;-61
2023/04/22 08:12:21;;;;;;;4.72;3.53;;;15.90;96.60;;;;;;5060050;28;20044;-62
2023/04/22 08:14:46;;;;;;;5.55;3.83;;;16.00;96.80;;;;;;5063880;28;20021;-60
2023/04/22 08:17:12;;;;;;;4.47;4.05;;;16.10;98.60;;;;;;5060800;28;20512;-59
2023/04/22 08:19:37;;;;;;;6.32;4.18;;;16.30;94.20;;;;;;5062063;28;20028;-60
2023/04/22 08:22:03;;;;;;;7.63;3.75;;;16.40;97.30;;;;;;5060692;28;20652;-61
2023/04/22 08:24:29;;;;;;;5.80;4.05;;;16.50;93.70;;;;;;5062331;28;20036;-61
2023/04/22 08:26:55;;;;;;;6.25;4.25;;;16.50;92.20;;;;;;5059682;28;20025;-60
2023/04/22 08:29:21;;;;;;;6.13;4.28;;;16.60;91.60;;;;;;5062653;28;20025;-64
2023/04/22 08:31:47;;;;;;;7.43;4.65;;;16.80;94.20;;;;;;5058381;28;20032;-61
2023/04/22 08:34:12;;;;;;;5.03;3.20;;;16.90;95.30;;;;;;5058493;28;20507;-62
2023/04/22 08:36:38;;;;;;;7.30;3.42;;;16.90;91.20;;;;;;5055440;28;20397;-60
2023/04/22 08:39:03;;;;;;;5.22;3.40;;;16.80;92.10;;;;;;5059528;28;20033;-60
2023/04/22 08:41:32;;;;;;;8.40;4.47;;;16.80;96.30;;;;;;5059320;28;20020;-59
2023/04/22 08:43:59;;;;;;;7.40;3.17;;;16.80;93.40;;;;;;5059345;28;20512;-59
2023/04/22 08:46:27;;;;;;;4.78;3.88;;;16.80;87.30;;;;;;5059743;28;20043;-60
2023/04/22 08:48:53;;;;;;;4.88;3.13;;;16.90;93.50;;;;;;5060145;28;20155;-61
2023/04/22 08:51:20;;;;;;;5.28;3.33;;;17.20;94.00;;;;;;5063646;28;20568;-61
2023/04/22 08:53:46;;;;;;;5.32;3.70;;;17.30;93.30;;;;;;5056080;28;20041;-62
2023/04/22 08:56:12;;;;;;;9.30;3.08;;;17.50;93.50;;;;;;5058287;28;20389;-61
2023/04/22 08:58:40;;;;;;;4.25;2.72;;;17.60;88.70;;;;;;5049918;28;20025;-59
2023/04/22 09:01:07;;;;;;;8.60;3.58;;;17.70;83.20;;;;;;5058701;28;20825;-62
2023/04/22 09:03:35;;;;;;;4.30;3.30;;;17.70;88.60;;;;;;5056206;28;20060;-61
2023/04/22 09:06:03;;;;;;;5.47;3.67;;;17.90;88.00;;;;;;5060684;28;20016;-62
2023/04/22 09:08:29;;;;;;;3.17;2.70;;;18.00;88.60;;;;;;5060877;28;20028;-63
2023/04/22 09:10:54;;;;;;;3.45;3.15;;;18.40;90.30;;;;;;5059225;28;20654;-62
2023/04/22 09:13:21;;;;;;;6.30;3.35;;;18.90;81.00;;;;;;5060507;28;20465;-62
2023/04/22 09:15:47;;;;;;;4.57;3.35;;;19.50;79.50;;;;;;5058706;28;20128;-64
2023/04/22 09:18:17;;;;;;;5.60;3.22;;;20.10;74.00;;;;;;5055391;28;20492;-60
2023/04/22 09:20:42;;;;;;;6.13;2.97;;;20.30;70.90;;;;;;5057565;28;20056;-61
2023/04/22 09:23:11;;;;;;;4.05;3.00;;;20.80;75.90;;;;;;5056103;28;20060;-62
2023/04/22 09:25:37;;;;;;;6.13;2.90;;;20.90;71.80;;;;;;5058298;28;20025;-60
2023/04/22 09:28:03;;;;;;;6.70;2.67;;;21.30;73.50;;;;;;5058920;28;20181;-60
2023/04/22 09:30:29;;;;;;;4.45;3.10;;;21.70;68.90;;;;;;5057398;28;20132;-66
2023/04/22 09:32:57;;;;;;;3.15;2.85;;;21.80;69.60;;;;;;5062027;28;20043;-61
2023/04/22 09:35:30;;;;;;;4.00;3.13;;;21.70;67.70;;;;;;5060377;28;20025;-62
2023/04/22 09:37:57;;;;;;;3.03;2.40;;;21.60;68.50;;;;;;5056851;28;20083;-61
2023/04/22 09:40:23;;;;;;;5.03;3.08;;;21.70;67.90;;;;;;5056420;28;20027;-65
2023/04/22 09:42:51;;;;;;;7.07;3.28;;;21.70;65.20;;;;;;5054521;28;20565;-62
2023/04/22 09:45:27;;;;;;;4.22;2.80;;;21.80;66.40;;;;;;5058793;28;20044;-63
2023/04/22 09:47:55;;;;;;;4.18;2.72;;;22.00;65.40;;;;;;5059489;28;20385;-63
2023/04/22 09:50:24;;;;;;;3.65;2.65;;;22.00;64.10;;;;;;5056612;28;20018;-64
2023/04/22 09:53:01;;;;;;;3.55;2.33;;;22.20;66.30;;;;;;5058260;28;20044;-63
2023/04/22 09:55:31;;;;;;;3.22;2.92;;;22.50;65.30;;;;;;5061245;28;21158;-64
2023/04/22 09:57:57;;;;;;;3.17;2.88;;;22.80;65.70;;;;;;5057093;28;20408;-61
2023/04/22 10:00:28;;;;;;;4.20;2.97;;;22.80;63.00;;;;;;5058106;28;20091;-63
2023/04/22 10:02:53;;;;;;;3.03;2.72;;;22.90;63.90;;;;;;5055630;28;20056;-63
2023/04/22 10:05:19;;;;;;;2.63;2.42;;;22.90;63.50;;;;;;5056243;28;20075;-62
2023/04/22 10:07:45;;;;;;;3.83;2.85;;;23.00;60.60;;;;;;5056557;28;20025;-62
2023/04/22 10:10:11;;;;;;;3.90;2.70;;;23.00;60.90;;;;;;5055874;28;20031;-60
2023/04/22 10:12:37;;;;;;;2.88;2.50;;;23.00;59.70;;;;;;5056119;28;20472;-61
2023/04/22 10:15:05;;;;;;;3.53;2.45;;;23.00;61.50;;;;;;5056659;28;20069;-61
2023/04/22 10:17:34;;;;;;;3.55;2.38;;;23.10;59.10;;;;;;5056449;28;20039;-61
2023/04/22 10:20:03;;;;;;;9.07;2.88;;;23.00;60.80;;;;;;5056551;28;20025;-63
2023/04/22 10:22:31;;;;;;;3.92;2.80;;;23.00;61.10;;;;;;5056383;28;20039;-63
2023/04/22 10:24:57;;;;;;;4.07;2.50;;;23.00;57.80;;;;;;5059940;28;20029;-60
2023/04/22 10:27:23;;;;;;;7.28;2.72;;;22.80;58.20;;;;;;5057006;28;20029;-62
2023/04/22 10:29:49;;;;;;;3.55;2.28;;;22.60;58.30;;;;;;5054931;28;20035;-65
2023/04/22 10:32:17;;;;;;;3.42;2.55;;;22.30;58.50;;;;;;5057114;28;20071;-64
2023/04/22 10:34:47;;;;;;;3.05;2.00;;;22.20;61.30;;;;;;5056668;28;20025;-62
2023/04/22 10:37:16;;;;;;;4.22;2.28;;;22.30;59.30;;;;;;5058511;28;20048;-60
2023/04/22 10:40:02;;;;;;;3.88;2.20;;;22.20;59.40;;;;;;5059029;28;20519;-61
2023/04/22 10:42:28;;;;;;;2.78;1.65;;;22.30;60.80;;;;;;5058723;28;20489;-61
2023/04/22 10:45:00;;;;;;;1.92;1.75;;;22.40;54.50;;;;;;5059431;28;20024;-61
2023/04/22 10:47:25;;;;;;;4.32;1.67;;;22.60;55.30;;;;;;5059038;28;20108;-60
2023/04/22 10:50:07;;;;;;;2.33;2.10;;;22.50;55.30;;;;;;5062308;28;20460;-61
2023/04/22 10:52:33;;;;;;;2.30;2.10;;;22.80;59.60;;;;;;5059764;28;20074;-61
2023/04/22 10:55:00;;;;;;;2.17;1.48;;;22.90;54.90;;;;;;5056132;28;20060;-63
2023/04/22 10:57:36;;;;;;;2.58;1.90;;;23.00;59.10;;;;;;5055436;28;20111;-64
2023/04/22 11:00:15;;;;;;;3.33;2.00;;;22.80;51.10;;;;;;5052079;28;20399;-61
2023/04/22 11:02:44;;;;;;;5.93;2.10;;;22.60;54.20;;;;;;5053651;28;20028;-61
2023/04/22 11:05:25;;;;;;;6.13;2.30;;;22.40;56.50;;;;;;5056783;28;20334;-61
2023/04/22 11:07:54;;;;;;;3.50;2.10;;;22.30;53.90;;;;;;5057129;28;20029;-61
2023/04/22 11:10:33;;;;;;;4.32;2.13;;;22.20;55.50;;;;;;5058493;28;20048;-61
2023/04/22 11:13:01;;;;;;;3.78;1.80;;;22.20;54.10;;;;;;5056855;28;20043;-61
2023/04/22 11:15:30;;;;;;;3.10;1.83;;;22.20;59.30;;;;;;5056183;28;20029;-63
2023/04/22 11:17:56;;;;;;;3.30;1.55;;;22.30;57.50;;;;;;5057547;28;20052;-60
2023/04/22 11:20:22;;;;;;;2.63;1.50;;;22.20;54.20;;;;;;5057046;28;20485;-62
2023/04/22 11:22:52;;;;;;;2.95;2.20;;;22.10;55.30;;;;;;5056015;28;20031;-64
2023/04/22 11:25:19;;;;;;;3.00;1.85;;;22.10;57.20;;;;;;5057228;28;20928;-61
2023/04/22 11:27:45;;;;;;;2.88;1.63;;;22.10;57.30;;;;;;5055148;28;20048;-62
2023/04/22 11:30:19;;;;;;;3.30;1.88;;;22.20;57.70;;;;;;5054852;28;20496;-63
2023/04/22 11:32:51;;;;;;;3.33;2.15;;;22.10;54.80;;;;;;5055138;28;20053;-62
2023/04/22 11:35:35;;;;;;;2.95;1.92;;;22.10;59.30;;;;;;5056858;28;20029;-64
2023/04/22 11:38:02;;;;;;;2.67;1.88;;;22.20;58.40;;;;;;5056644;28;20083;-61
2023/04/22 11:40:35;;;;;;;2.95;2.00;;;22.20;58.30;;;;;;5057521;28;20043;-61
2023/04/22 11:43:04;;;;;;;2.95;2.03;;;22.20;55.60;;;;;;5056063;28;20100;-61
2023/04/22 11:45:31;;;;;;;3.15;1.88;;;22.40;57.40;;;;;;5054660;28;20068;-60
2023/04/22 11:47:57;;;;;;;2.97;1.42;;;22.70;56.70;;;;;;5057156;28;20033;-62
2023/04/22 11:50:27;;;;;;;5.75;2.13;;;23.00;56.70;;;;;;5057800;28;20029;-61
2023/04/22 11:52:56;;;;;;;3.55;2.47;;;23.10;60.90;;;;;;5056490;28;20400;-61
2023/04/22 11:55:22;;;;;;;2.13;1.77;;;23.30;57.10;;;;;;5058518;28;20087;-61
2023/04/22 11:58:15;;;;;;;2.45;2.17;;;23.40;55.20;;;;;;5054928;28;20041;-63
2023/04/22 12:00:49;;;;;;;2.53;2.30;;;23.30;55.10;;;;;;5055221;28;20029;-60
2023/04/22 12:03:20;;;;;;;3.78;1.90;;;23.00;54.70;;;;;;5057595;28;20020;-62
2023/04/22 12:05:51;;;;;;;4.13;2.08;;;23.10;57.20;;;;;;5057490;28;20423;-63
2023/04/22 12:08:17;;;;;;;;;;;23.20;56.90;;;;;;5056690;28;20741;-62
2023/04/22 12:10:47;;;;;;;3.25;2.03;;;23.50;55.20;;;;;;5052257;28;19999;-60
2023/04/22 12:13:23;;;;;;;2.45;1.73;;;23.50;55.10;;;;;;5055511;28;20067;-60
2023/04/22 12:15:53;;;;;;;2.15;1.95;;;23.60;53.60;;;;;;5058949;28;20480;-65
2023/04/22 12:18:36;;;;;;;1.92;1.80;;;23.60;56.40;;;;;;5057630;28;20029;-64
2023/04/22 12:21:12;;;;;;;5.78;2.15;;;23.50;55.50;;;;;;5056016;28;20029;-59
2023/04/22 12:23:46;;;;;;;6.32;1.85;;;23.50;54.30;;;;;;5058242;28;20070;-62
2023/04/22 12:26:13;;;;;;;2.58;1.45;;;23.70;55.60;;;;;;5061368;28;20186;-61
2023/04/22 12:28:39;;;;;;;3.33;2.25;;;23.80;52.70;;;;;;5061476;28;20025;-60
2023/04/22 12:31:05;;;;;;;5.35;1.73;;;23.70;53.60;;;;;;5058381;28;20028;-60
2023/04/22 12:33:31;;;;;;;1.73;1.50;;;23.80;53.60;;;;;;5057507;28;20500;-62
2023/04/22 12:35:58;;;;;;;13.32;2.40;;;23.90;53.80;;;;;;5058249;28;20033;-61
2023/04/22 12:38:23;;;;;;;2.03;1.52;;;24.10;53.60;;;;;;5057450;28;20481;-63
2023/04/22 12:40:50;;;;;;;5.32;1.70;;;24.40;54.70;;;;;;5059992;28;20106;-62
2023/04/22 12:43:16;;;;;;;4.28;2.08;;;24.40;53.50;;;;;;5058323;28;20021;-64
2023/04/22 12:45:42;;;;;;;5.75;2.00;;;24.10;53.30;;;;;;5060616;28;20354;-64
2023/04/22 12:48:07;;;;;;;2.72;1.75;;;24.10;54.10;;;;;;5061617;28;20037;-62